createdAt,value
2023-05-22T00:00:16.672Z,4.68
2023-05-22T00:02:45.039Z,5.85
2023-05-22T00:05:14.390Z,4.80
2023-05-22T00:07:43.598Z,6.43
2023-05-22T00:10:12.321Z,3.92
2023-05-22T00:12:40.332Z,4.75
2023-05-22T00:15:09.849Z,4.15
2023-05-22T00:17:39.416Z,6.90
2023-05-22T00:20:10.755Z,4.15
2023-05-22T00:22:39.067Z,4.60
2023-05-22T00:25:08.751Z,3.90
2023-05-22T00:27:36.694Z,3.35
2023-05-22T00:30:08.384Z,4.50
2023-05-22T00:32:36.487Z,3.83
2023-05-22T00:35:09.176Z,5.20
2023-05-22T00:37:37.178Z,4.63
2023-05-22T00:40:06.139Z,3.88
2023-05-22T00:42:34.036Z,4.35
2023-05-22T00:45:01.904Z,3.65
2023-05-22T00:47:30.095Z,2.70
2023-05-22T00:49:58.247Z,2.88
2023-05-22T00:52:27.705Z,3.05
2023-05-22T00:54:55.912Z,2.50
2023-05-22T00:57:24.661Z,5.50
2023-05-22T00:59:53.117Z,6.22
2023-05-22T01:02:21.774Z,7.13
2023-05-22T01:04:50.168Z,4.75
2023-05-22T01:07:18.792Z,5.22
2023-05-22T01:09:48.167Z,4.30
2023-05-22T01:12:24.656Z,3.53
2023-05-22T01:15:00.824Z,4.20
2023-05-22T01:17:34.984Z,5.43
2023-05-22T01:20:14.408Z,7.70
2023-05-22T01:23:33.590Z,6.18
2023-05-22T01:26:34.033Z,2.83
2023-05-22T01:29:38.321Z,2.72
2023-05-22T01:32:12.037Z,3.97
2023-05-22T01:34:44.332Z,2.95
2023-05-22T01:37:14.527Z,2.25
2023-05-22T01:39:44.403Z,3.95
2023-05-22T01:42:12.338Z,3.42
2023-05-22T01:44:40.334Z,4.03
2023-05-22T01:47:10.812Z,3.55
2023-05-22T01:49:39.975Z,2.58
2023-05-22T01:52:14.320Z,4.15
2023-05-22T01:54:52.830Z,2.63
2023-05-22T01:57:28.594Z,3.05
2023-05-22T02:00:07.424Z,2.75
2023-05-22T02:02:38.982Z,3.85
2023-05-22T02:05:10.374Z,4.75
2023-05-22T02:07:40.846Z,4.32
2023-05-22T02:10:11.532Z,4.05
2023-05-22T02:12:40.722Z,3.10
2023-05-22T02:15:09.849Z,3.42
2023-05-22T02:17:41.598Z,4.00
2023-05-22T02:20:15.166Z,5.00
2023-05-22T02:22:44.502Z,3.15
2023-05-22T02:25:14.633Z,2.55
2023-05-22T02:27:44.020Z,4.47
2023-05-22T02:30:12.873Z,3.63
2023-05-22T02:32:42.809Z,3.72
2023-05-22T02:35:11.467Z,7.38
2023-05-22T02:37:39.717Z,3.88
2023-05-22T02:40:08.672Z,3.78
2023-05-22T02:42:36.888Z,2.72
2023-05-22T02:45:05.393Z,3.95
2023-05-22T02:47:33.417Z,6.03
2023-05-22T02:50:03.087Z,4.78
2023-05-22T02:52:31.080Z,5.20
2023-05-22T02:54:59.120Z,3.97
2023-05-22T02:57:27.170Z,5.10
2023-05-22T02:59:55.011Z,3.75
2023-05-22T03:02:22.947Z,4.80
2023-05-22T03:04:50.869Z,6.50
2023-05-22T03:07:21.538Z,4.13
2023-05-22T03:09:49.506Z,4.95
2023-05-22T03:12:17.449Z,4.63
2023-05-22T03:14:45.325Z,4.88
2023-05-22T03:17:14.346Z,3.92
2023-05-22T03:19:42.788Z,5.70
2023-05-22T03:22:10.774Z,3.35
2023-05-22T03:24:40.044Z,5.07
2023-05-22T03:27:08.433Z,6.20
2023-05-22T03:29:36.457Z,4.85
2023-05-22T03:32:04.618Z,5.68
2023-05-22T03:34:33.059Z,5.03
2023-05-22T03:37:01.090Z,5.80
2023-05-22T03:39:29.062Z,5.43
2023-05-22T03:41:58.423Z,4.65
2023-05-22T03:44:26.472Z,4.68
2023-05-22T03:46:54.566Z,5.05
2023-05-22T03:49:22.452Z,4.70
2023-05-22T03:51:50.443Z,5.25
2023-05-22T03:54:18.426Z,5.03
2023-05-22T03:56:46.426Z,11.63
2023-05-22T03:59:16.477Z,9.10
2023-05-22T04:01:46.673Z,9.10
2023-05-22T04:04:14.622Z,10.00
2023-05-22T04:06:44.024Z,8.40
2023-05-22T04:09:12.720Z,11.95
2023-05-22T04:11:42.324Z,5.88
2023-05-22T04:14:10.968Z,8.48
2023-05-22T04:16:40.270Z,7.43
2023-05-22T04:19:09.631Z,9.05
2023-05-22T04:21:38.387Z,6.70
2023-05-22T04:24:09.666Z,7.68
2023-05-22T04:26:40.431Z,8.05
2023-05-22T04:29:10.590Z,7.65
2023-05-22T04:31:40.082Z,6.90
2023-05-22T04:34:08.115Z,10.57
2023-05-22T04:36:36.015Z,9.73
2023-05-22T04:39:04.201Z,9.55
2023-05-22T04:41:32.584Z,9.52
2023-05-22T04:44:00.545Z,10.02
2023-05-22T04:46:28.884Z,6.55
2023-05-22T04:49:02.148Z,8.43
2023-05-22T04:51:31.260Z,7.22
2023-05-22T04:53:59.424Z,8.45
2023-05-22T04:56:36.418Z,7.18
2023-05-22T04:59:09.475Z,7.68
2023-05-22T05:01:38.393Z,9.20
2023-05-22T05:04:07.900Z,5.53
2023-05-22T05:06:35.955Z,6.13
2023-05-22T05:09:03.869Z,5.68
2023-05-22T05:11:31.752Z,6.20
2023-05-22T05:13:59.722Z,3.95
2023-05-22T05:16:28.962Z,10.07
2023-05-22T05:18:57.027Z,8.77
2023-05-22T05:21:27.983Z,7.30
2023-05-22T05:23:56.143Z,5.82
2023-05-22T05:26:24.241Z,9.25
2023-05-22T05:28:52.510Z,6.80
2023-05-22T05:31:20.740Z,5.88
2023-05-22T05:33:49.114Z,9.45
2023-05-22T05:36:17.593Z,7.93
2023-05-22T05:38:47.175Z,6.72
2023-05-22T05:41:15.087Z,4.82
2023-05-22T05:43:43.005Z,5.53
2023-05-22T05:46:12.185Z,6.35
2023-05-22T05:48:40.123Z,7.53
2023-05-22T05:51:08.047Z,12.18
2023-05-22T05:53:37.062Z,8.20
2023-05-22T05:56:08.054Z,8.48
2023-05-22T05:58:36.078Z,7.25
2023-05-22T06:01:04.790Z,6.18
2023-05-22T06:03:32.866Z,6.32
2023-05-22T06:06:01.118Z,5.85
2023-05-22T06:08:29.352Z,7.25
2023-05-22T06:10:57.237Z,4.20
2023-05-22T06:13:26.525Z,8.75
2023-05-22T06:15:54.421Z,6.72
2023-05-22T06:18:23.757Z,7.28
2023-05-22T06:20:51.670Z,5.63
2023-05-22T06:23:19.538Z,7.68
2023-05-22T06:25:47.405Z,6.22
2023-05-22T06:28:15.328Z,4.50
2023-05-22T06:30:45.160Z,5.88
2023-05-22T06:33:14.666Z,8.25
2023-05-22T06:35:43.265Z,10.73
2023-05-22T06:38:11.285Z,5.97
2023-05-22T06:40:39.495Z,6.88
2023-05-22T06:43:07.549Z,9.57
2023-05-22T06:45:37.558Z,5.63
2023-05-22T06:48:07.623Z,6.65
2023-05-22T06:50:35.603Z,7.93
2023-05-22T06:53:03.496Z,8.90
2023-05-22T06:55:31.358Z,5.55
2023-05-22T06:57:59.392Z,6.20
2023-05-22T07:00:27.379Z,6.75
2023-05-22T07:02:55.520Z,7.45
2023-05-22T07:05:25.000Z,4.20
2023-05-22T07:07:53.013Z,5.50
2023-05-22T07:10:21.040Z,4.68
2023-05-22T07:12:49.025Z,6.70
2023-05-22T07:15:17.275Z,9.27
2023-05-22T07:17:45.304Z,7.13
2023-05-22T07:20:18.306Z,6.22
2023-05-22T07:22:47.650Z,8.88
2023-05-22T07:25:15.616Z,5.05
2023-05-22T07:27:43.499Z,2.25
2023-05-22T07:30:12.459Z,3.33
2023-05-22T07:32:40.563Z,3.47
2023-05-22T07:35:10.897Z,3.42
2023-05-22T07:37:39.021Z,2.83
2023-05-22T07:40:11.318Z,3.85
2023-05-22T07:42:39.348Z,4.55
2023-05-22T07:45:08.706Z,2.55
2023-05-22T07:47:36.673Z,3.30
2023-05-22T07:50:05.138Z,4.30
2023-05-22T07:52:33.078Z,2.05
2023-05-22T07:55:02.411Z,3.38
2023-05-22T07:57:32.890Z,4.35
2023-05-22T08:00:00.975Z,4.03
2023-05-22T08:02:28.999Z,4.65
2023-05-22T08:04:57.128Z,3.88
2023-05-22T08:07:25.497Z,1.58
2023-05-22T08:09:53.607Z,2.78
2023-05-22T08:12:21.581Z,1.40
2023-05-22T08:14:50.896Z,5.35
2023-05-22T08:17:19.449Z,4.22
2023-05-22T08:19:47.731Z,2.42
2023-05-22T08:22:16.183Z,2.40
2023-05-22T08:24:44.211Z,2.15
2023-05-22T08:27:12.198Z,2.85
2023-05-22T08:29:40.202Z,2.30
2023-05-22T08:32:11.482Z,4.68
2023-05-22T08:34:40.415Z,1.65
2023-05-22T08:37:09.445Z,6.00
2023-05-22T08:39:37.363Z,3.47
2023-05-22T08:42:06.776Z,3.28
2023-05-22T08:44:34.878Z,3.63
2023-05-22T08:47:04.483Z,2.10
2023-05-22T08:49:33.897Z,1.98
2023-05-22T08:52:07.168Z,4.93
2023-05-22T08:54:38.073Z,5.43
2023-05-22T08:57:07.256Z,6.85
2023-05-22T08:59:37.342Z,4.18
2023-05-22T09:02:07.008Z,4.63
2023-05-22T09:04:36.559Z,3.80
2023-05-22T09:07:06.126Z,3.58
2023-05-22T09:09:38.145Z,3.20
2023-05-22T09:12:10.352Z,3.30
2023-05-22T09:14:42.503Z,3.25
2023-05-22T09:17:12.067Z,2.90
2023-05-22T09:19:44.978Z,4.57
2023-05-22T09:22:13.571Z,2.22
2023-05-22T09:24:43.336Z,4.07
2023-05-22T09:27:12.634Z,3.70
2023-05-22T09:29:50.760Z,2.90
2023-05-22T09:32:19.121Z,4.47
2023-05-22T09:34:49.008Z,3.33
2023-05-22T09:37:17.802Z,2.05
2023-05-22T09:39:47.625Z,2.60
2023-05-22T09:42:17.905Z,2.30
2023-05-22T09:44:49.595Z,4.65
2023-05-22T09:47:17.894Z,1.95
2023-05-22T09:49:46.796Z,2.75
2023-05-22T09:52:18.434Z,3.63
2023-05-22T09:54:53.995Z,5.50
2023-05-22T09:57:22.921Z,2.60
2023-05-22T09:59:58.169Z,5.28
2023-05-22T10:02:27.539Z,2.70
2023-05-22T10:04:55.835Z,3.85
2023-05-22T10:07:36.927Z,5.95
2023-05-22T10:10:10.126Z,2.55
2023-05-22T10:12:45.744Z,1.85
2023-05-22T10:15:14.394Z,4.57
2023-05-22T10:17:42.934Z,2.70
2023-05-22T10:20:13.397Z,2.63
2023-05-22T10:22:42.912Z,2.88
2023-05-22T10:25:11.964Z,2.80
2023-05-22T10:27:41.123Z,2.35
2023-05-22T10:30:20.313Z,7.93
2023-05-22T10:32:52.038Z,3.05
2023-05-22T10:35:24.471Z,2.38
2023-05-22T10:38:00.131Z,2.40
2023-05-22T10:40:32.862Z,5.20
2023-05-22T10:43:04.142Z,3.33
2023-05-22T10:45:33.163Z,4.03
2023-05-22T10:48:09.796Z,2.80
2023-05-22T10:50:39.130Z,4.05
2023-05-22T10:53:27.118Z,3.50
2023-05-22T10:55:56.856Z,2.45
2023-05-22T10:58:28.866Z,2.13
2023-05-22T11:01:14.244Z,4.88
2023-05-22T11:04:00.993Z,4.65
2023-05-22T11:06:41.258Z,2.30
2023-05-22T11:09:30.219Z,2.28
2023-05-22T11:12:24.555Z,2.00
2023-05-22T11:14:56.387Z,2.42
2023-05-22T11:17:26.100Z,3.80
2023-05-22T11:20:06.500Z,2.60
2023-05-22T11:22:36.712Z,5.20
2023-05-22T11:25:09.297Z,3.90
2023-05-22T11:27:37.698Z,4.20
2023-05-22T11:30:07.434Z,1.85
2023-05-22T11:32:37.689Z,1.92
2023-05-22T11:35:08.640Z,3.22
2023-05-22T11:37:40.608Z,3.22
2023-05-22T11:40:11.706Z,2.15
2023-05-22T11:42:39.657Z,5.53
2023-05-22T11:45:08.716Z,4.95
2023-05-22T11:47:37.058Z,2.13
2023-05-22T11:50:06.839Z,2.08
2023-05-22T11:52:36.231Z,5.43
2023-05-22T11:55:06.585Z,4.15
2023-05-22T11:57:36.922Z,4.07
2023-05-22T12:00:08.891Z,1.55
2023-05-22T12:02:37.259Z,1.95
2023-05-22T12:05:06.930Z,7.82
2023-05-22T12:07:35.255Z,2.67
2023-05-22T12:10:04.362Z,1.80
2023-05-22T12:12:32.319Z,4.25
2023-05-22T12:15:01.693Z,4.40
2023-05-22T12:17:30.094Z,4.22
2023-05-22T12:19:59.267Z,2.78
2023-05-22T12:22:29.867Z,3.25
2023-05-22T12:24:57.919Z,2.58
2023-05-22T12:27:25.891Z,4.50
2023-05-22T12:29:57.330Z,3.53
2023-05-22T12:32:31.046Z,1.92
2023-05-22T12:34:59.652Z,1.60
2023-05-22T12:37:28.566Z,5.82
2023-05-22T12:39:57.656Z,1.70
2023-05-22T12:42:26.106Z,1.92
2023-05-22T12:44:55.166Z,4.80
2023-05-22T12:47:24.566Z,3.05
2023-05-22T12:49:54.357Z,2.47
2023-05-22T12:52:22.935Z,3.70
2023-05-22T12:54:52.033Z,2.58
2023-05-22T12:57:20.058Z,2.25
2023-05-22T12:59:48.019Z,3.05
2023-05-22T13:02:18.493Z,4.68
2023-05-22T13:04:48.516Z,4.35
2023-05-22T13:07:18.692Z,1.77
2023-05-22T13:09:46.789Z,2.95
2023-05-22T13:12:17.066Z,2.65
2023-05-22T13:14:45.143Z,3.40
2023-05-22T13:17:13.151Z,2.83
2023-05-22T13:19:41.008Z,3.33
2023-05-22T13:22:09.581Z,2.80
2023-05-22T13:24:38.938Z,3.97
2023-05-22T13:27:07.379Z,3.00
2023-05-22T13:29:35.331Z,4.70
2023-05-22T13:32:03.760Z,1.80
2023-05-22T13:34:32.363Z,1.75
2023-05-22T13:37:00.601Z,2.40
2023-05-22T13:39:28.489Z,2.22
2023-05-22T13:41:58.011Z,2.75
2023-05-22T13:44:26.500Z,2.20
2023-05-22T13:46:54.552Z,1.90
2023-05-22T13:49:22.486Z,3.88
2023-05-22T13:51:50.682Z,2.10
2023-05-22T13:54:18.757Z,2.53
2023-05-22T13:56:46.990Z,3.50
2023-05-22T13:59:17.128Z,3.45
2023-05-22T14:01:45.452Z,4.35
2023-05-22T14:04:14.091Z,3.95
2023-05-22T14:06:42.161Z,1.60
2023-05-22T14:09:10.280Z,3.13
2023-05-22T14:11:38.485Z,3.40
2023-05-22T14:14:06.707Z,2.88
2023-05-22T14:16:36.442Z,3.10
2023-05-22T14:19:04.957Z,2.60
2023-05-22T14:21:36.879Z,2.30
2023-05-22T14:24:06.541Z,3.10
2023-05-22T14:26:34.607Z,2.35
2023-05-22T14:29:02.819Z,3.83
2023-05-22T14:31:31.201Z,3.50
2023-05-22T14:34:00.826Z,2.08
2023-05-22T14:36:28.827Z,4.55
2023-05-22T14:38:58.066Z,4.13
2023-05-22T14:41:26.415Z,4.88
2023-05-22T14:43:54.427Z,2.53
2023-05-22T14:46:22.453Z,2.58
2023-05-22T14:48:51.549Z,6.05
2023-05-22T14:51:22.004Z,2.10
2023-05-22T14:53:49.963Z,3.83
2023-05-22T14:56:19.006Z,3.38
2023-05-22T14:58:47.023Z,2.72
2023-05-22T15:01:15.114Z,3.92
2023-05-22T15:03:44.549Z,2.28
2023-05-22T15:06:12.455Z,3.47
2023-05-22T15:08:41.772Z,4.15
2023-05-22T15:11:10.007Z,2.05
2023-05-22T15:13:39.603Z,3.33
2023-05-22T15:16:07.505Z,4.07
2023-05-22T15:18:35.652Z,2.63
2023-05-22T15:21:03.819Z,2.08
2023-05-22T15:23:33.290Z,2.20
2023-05-22T15:26:02.574Z,1.60
2023-05-22T15:28:31.229Z,3.03
2023-05-22T15:31:00.241Z,3.72
2023-05-22T15:33:28.577Z,1.58
2023-05-22T15:35:56.561Z,2.65
2023-05-22T15:38:24.621Z,2.25
2023-05-22T15:40:52.647Z,4.38
2023-05-22T15:43:23.405Z,3.33
2023-05-22T15:45:53.188Z,2.30
2023-05-22T15:48:21.787Z,2.70
2023-05-22T15:50:49.712Z,2.25
2023-05-22T15:53:18.170Z,1.83
2023-05-22T15:55:47.073Z,3.25
2023-05-22T15:58:15.314Z,2.40
2023-05-22T16:00:47.691Z,2.17
2023-05-22T16:03:17.078Z,2.13
2023-05-22T16:05:46.968Z,2.30
2023-05-22T16:08:16.186Z,2.95
2023-05-22T16:10:46.385Z,3.10
2023-05-22T16:13:15.066Z,5.75
2023-05-22T16:15:46.264Z,1.88
2023-05-22T16:18:14.376Z,2.05
2023-05-22T16:20:42.566Z,3.53
2023-05-22T16:23:10.591Z,3.83
2023-05-22T16:25:39.159Z,5.57
2023-05-22T16:28:08.425Z,3.25
2023-05-22T16:30:40.031Z,2.50
2023-05-22T16:33:09.622Z,4.45
2023-05-22T16:35:37.882Z,2.45
2023-05-22T16:38:07.171Z,4.28
2023-05-22T16:40:35.115Z,3.80
2023-05-22T16:43:06.593Z,6.65
2023-05-22T16:45:34.602Z,7.07
2023-05-22T16:48:02.771Z,3.67
2023-05-22T16:50:33.679Z,4.53
2023-05-22T16:53:01.695Z,4.22
2023-05-22T16:55:29.757Z,2.92
2023-05-22T16:57:57.731Z,2.10
2023-05-22T17:00:26.023Z,5.05
2023-05-22T17:02:55.889Z,2.85
2023-05-22T17:05:25.464Z,4.18
2023-05-22T17:07:55.021Z,2.38
2023-05-22T17:10:22.999Z,2.70
2023-05-22T17:12:50.958Z,2.92
2023-05-22T17:15:19.006Z,3.15
2023-05-22T17:17:46.941Z,3.10
2023-05-22T17:20:14.912Z,3.17
2023-05-22T17:22:44.032Z,2.75
2023-05-22T17:25:13.530Z,2.38
2023-05-22T17:27:41.513Z,3.35
2023-05-22T17:30:10.133Z,3.25
2023-05-22T17:32:38.841Z,2.75
2023-05-22T17:35:07.477Z,2.65
2023-05-22T17:37:35.854Z,4.38
2023-05-22T17:40:04.155Z,4.13
2023-05-22T17:42:33.373Z,2.42
2023-05-22T17:45:01.213Z,2.95
2023-05-22T17:47:29.146Z,2.60
2023-05-22T17:49:57.193Z,2.22
2023-05-22T17:52:25.157Z,2.65
2023-05-22T17:54:53.112Z,4.43
2023-05-22T17:57:20.954Z,3.55
2023-05-22T17:59:50.397Z,4.95
2023-05-22T18:02:18.829Z,2.72
2023-05-22T18:04:48.607Z,3.70
2023-05-22T18:07:17.492Z,4.45
2023-05-22T18:09:45.546Z,3.13
2023-05-22T18:12:30.186Z,3.45
2023-05-22T18:15:00.468Z,3.00
2023-05-22T18:17:28.545Z,2.35
2023-05-22T18:19:56.445Z,3.78
2023-05-22T18:22:25.763Z,5.05
2023-05-22T18:24:53.710Z,3.22
2023-05-22T18:27:21.679Z,3.38
2023-05-22T18:29:50.562Z,2.15
2023-05-22T18:32:20.164Z,3.90
2023-05-22T18:34:48.720Z,4.65
2023-05-22T18:37:17.435Z,4.63
2023-05-22T18:39:45.410Z,5.60
2023-05-22T18:42:13.548Z,2.97
2023-05-22T18:44:41.723Z,2.53
2023-05-22T18:47:09.711Z,7.15
2023-05-22T18:49:38.947Z,6.47
2023-05-22T18:52:06.863Z,6.00
2023-05-22T18:54:34.731Z,4.28
2023-05-22T18:57:02.807Z,5.88
2023-05-22T18:59:30.801Z,2.63
2023-05-22T19:01:58.852Z,3.13
2023-05-22T19:04:26.945Z,6.80
2023-05-22T19:06:56.712Z,6.47
2023-05-22T19:09:25.828Z,3.72
2023-05-22T19:11:54.005Z,3.75
2023-05-22T19:14:21.903Z,5.20
2023-05-22T19:16:49.877Z,6.78
2023-05-22T19:19:18.016Z,9.27
2023-05-22T19:21:46.322Z,4.22
2023-05-22T19:24:15.609Z,4.63
2023-05-22T19:26:44.308Z,6.05
2023-05-22T19:29:14.938Z,5.57
2023-05-22T19:31:42.895Z,11.05
2023-05-22T19:34:11.038Z,8.93
2023-05-22T19:36:38.954Z,11.93
2023-05-22T19:39:06.942Z,4.65
2023-05-22T19:41:36.252Z,7.72
2023-05-22T19:44:04.256Z,5.35
2023-05-22T19:46:32.229Z,5.90
2023-05-22T19:49:00.240Z,6.10
2023-05-22T19:51:28.291Z,5.88
2023-05-22T19:53:56.386Z,6.43
2023-05-22T19:56:24.351Z,7.25
2023-05-22T19:58:53.624Z,6.82
2023-05-22T20:01:24.303Z,7.95
2023-05-22T20:03:52.437Z,6.95
2023-05-22T20:06:21.008Z,7.57
2023-05-22T20:08:49.376Z,4.57
2023-05-22T20:11:17.505Z,7.32
2023-05-22T20:13:48.473Z,5.10
2023-05-22T20:16:18.116Z,4.93
2023-05-22T20:18:46.554Z,12.40
2023-05-22T20:21:14.448Z,11.02
2023-05-22T20:23:42.402Z,6.07
2023-05-22T20:26:10.379Z,5.00
2023-05-22T20:28:38.366Z,8.50
2023-05-22T20:31:06.282Z,6.05
2023-05-22T20:33:35.683Z,7.82
2023-05-22T20:36:04.180Z,6.40
2023-05-22T20:38:34.908Z,5.70
2023-05-22T20:41:08.093Z,7.22
2023-05-22T20:43:37.118Z,9.15
2023-05-22T20:46:05.433Z,10.05
2023-05-22T20:48:33.336Z,5.65
2023-05-22T20:51:02.623Z,12.07
2023-05-22T20:53:30.720Z,9.32
2023-05-22T20:55:58.797Z,9.15
2023-05-22T20:58:27.515Z,8.98
2023-05-22T21:00:56.148Z,7.32
2023-05-22T21:03:25.751Z,9.65
2023-05-22T21:05:54.919Z,7.72
2023-05-22T21:08:24.352Z,6.65
2023-05-22T21:10:52.253Z,10.98
2023-05-22T21:13:20.614Z,6.10
2023-05-22T21:15:48.557Z,8.02
2023-05-22T21:18:16.607Z,7.22
2023-05-22T21:20:44.714Z,7.20
2023-05-22T21:23:12.752Z,6.13
2023-05-22T21:25:42.065Z,6.82
2023-05-22T21:28:10.496Z,6.30
2023-05-22T21:30:38.653Z,8.57
2023-05-22T21:33:06.911Z,9.43
2023-05-22T21:35:35.058Z,6.35
2023-05-22T21:38:03.202Z,8.38
2023-05-22T21:40:31.088Z,7.97
2023-05-22T21:43:00.467Z,8.27
2023-05-22T21:45:28.413Z,5.95
2023-05-22T21:47:56.330Z,7.78
2023-05-22T21:50:24.255Z,7.88
2023-05-22T21:52:55.070Z,7.13
2023-05-22T21:55:23.136Z,6.95
2023-05-22T21:57:51.162Z,6.03
2023-05-22T22:00:20.800Z,7.00
2023-05-22T22:02:48.855Z,4.90
2023-05-22T22:05:18.661Z,6.65
2023-05-22T22:07:46.750Z,5.65
2023-05-22T22:10:14.771Z,5.55
2023-05-22T22:12:43.117Z,8.98
2023-05-22T22:15:11.615Z,7.43
2023-05-22T22:17:41.749Z,4.68
2023-05-22T22:20:10.854Z,7.32
2023-05-22T22:22:38.718Z,8.10
2023-05-22T22:25:07.449Z,5.45
2023-05-22T22:27:35.659Z,4.68
2023-05-22T22:30:03.795Z,5.28
2023-05-22T22:32:31.709Z,7.72
2023-05-22T22:35:01.601Z,6.28
2023-05-22T22:37:29.508Z,6.05
2023-05-22T22:39:57.375Z,5.65
2023-05-22T22:42:26.692Z,5.78
2023-05-22T22:44:54.622Z,5.75
2023-05-22T22:47:22.693Z,6.32
2023-05-22T22:49:52.652Z,5.18
2023-05-22T22:52:22.025Z,5.88
2023-05-22T22:54:50.115Z,5.05
2023-05-22T22:57:18.232Z,7.30
2023-05-22T22:59:46.178Z,7.20
2023-05-22T23:02:14.085Z,6.88
2023-05-22T23:04:42.202Z,8.30
2023-05-22T23:07:10.193Z,5.10
2023-05-22T23:09:40.267Z,4.97
2023-05-22T23:12:09.858Z,4.22
2023-05-22T23:14:37.930Z,4.07
2023-05-22T23:17:05.972Z,6.55
2023-05-22T23:19:34.366Z,9.05
2023-05-22T23:22:02.441Z,5.63
2023-05-22T23:24:30.547Z,6.45
2023-05-22T23:26:59.950Z,5.13
2023-05-22T23:29:27.811Z,5.53
2023-05-22T23:31:55.849Z,3.83
2023-05-22T23:34:23.741Z,5.10
2023-05-22T23:36:51.725Z,6.72
2023-05-22T23:39:19.689Z,5.13
2023-05-22T23:41:47.569Z,7.40
2023-05-22T23:44:16.804Z,5.75
2023-05-22T23:46:44.778Z,4.95
2023-05-22T23:49:12.706Z,6.55
2023-05-22T23:51:40.880Z,5.18
2023-05-22T23:54:08.969Z,6.07
2023-05-22T23:56:36.906Z,3.35
2023-05-22T23:59:04.869Z,4.65
